createdAt,value
2023-05-10T00:01:27.138Z,63.68
2023-05-10T00:06:28.940Z,64.32
2023-05-10T00:11:30.632Z,64.57
2023-05-10T00:16:32.402Z,63.78
2023-05-10T00:21:34.779Z,64.33
2023-05-10T00:26:36.497Z,64.17
2023-05-10T00:31:38.580Z,63.68
2023-05-10T00:36:40.264Z,63.98
2023-05-10T00:41:42.630Z,64.11
2023-05-10T00:46:44.584Z,63.92
2023-05-10T00:51:46.827Z,63.90
2023-05-10T00:56:50.189Z,64.35
2023-05-10T01:01:53.085Z,64.53
2023-05-10T01:06:54.924Z,65.46
2023-05-10T01:11:57.495Z,65.65
2023-05-10T01:16:59.876Z,65.33
2023-05-10T01:22:20.028Z,66.12
2023-05-10T01:27:48.810Z,65.81
2023-05-10T01:33:15.597Z,66.26
2023-05-10T01:38:43.827Z,66.75
2023-05-10T01:44:13.625Z,67.52
2023-05-10T01:49:24.581Z,67.62
2023-05-10T01:54:28.180Z,67.42
2023-05-10T01:59:37.217Z,67.36
2023-05-10T02:04:41.851Z,67.59
2023-05-10T02:09:48.484Z,68.42
2023-05-10T02:14:52.187Z,68.45
2023-05-10T02:19:56.206Z,69.42
2023-05-10T02:25:00.528Z,69.15
2023-05-10T02:30:04.499Z,68.19
2023-05-10T02:35:07.229Z,69.46
2023-05-10T02:40:10.945Z,69.88
2023-05-10T02:45:15.529Z,70.43
2023-05-10T02:50:17.989Z,71.05
2023-05-10T02:55:23.859Z,70.84
2023-05-10T03:00:26.784Z,70.61
2023-05-10T03:05:28.536Z,71.08
2023-05-10T03:10:33.650Z,71.72
2023-05-10T03:15:48.608Z,72.21
2023-05-10T03:20:56.917Z,71.86
2023-05-10T03:25:59.611Z,72.07
2023-05-10T03:31:02.904Z,71.20
2023-05-10T03:36:06.545Z,70.93
2023-05-10T03:41:08.610Z,68.19
2023-05-10T03:46:10.970Z,65.26
2023-05-10T03:51:13.042Z,62.09
2023-05-10T03:56:15.021Z,59.46
2023-05-10T04:07:14.100Z,55.55
2023-05-10T04:12:16.126Z,54.03
2023-05-10T04:17:17.805Z,52.44
2023-05-10T04:22:19.473Z,51.58
2023-05-10T04:27:21.194Z,49.79
2023-05-10T04:32:22.898Z,48.43
2023-05-10T04:37:24.614Z,47.07
2023-05-10T04:42:26.319Z,45.73
2023-05-10T04:47:28.090Z,44.42
2023-05-10T04:52:29.899Z,43.12
2023-05-10T04:57:31.548Z,41.39
2023-05-10T05:02:33.228Z,41.29
2023-05-10T05:07:35.056Z,40.63
2023-05-10T05:12:36.737Z,40.32
2023-05-10T05:17:38.474Z,40.62
2023-05-10T05:22:40.218Z,44.74
2023-05-10T05:27:42.270Z,48.92
2023-05-10T05:32:44.005Z,52.35
2023-05-10T05:37:45.732Z,54.08
2023-05-10T05:42:47.418Z,54.92
2023-05-10T05:47:49.547Z,55.03
2023-05-10T05:52:51.340Z,53.92
2023-05-10T05:57:53.174Z,50.21
2023-05-10T06:02:54.985Z,45.73
2023-05-10T06:07:57.488Z,43.06
2023-05-10T06:12:59.269Z,41.27
2023-05-10T06:18:01.478Z,39.88
2023-05-10T06:23:03.359Z,38.92
2023-05-10T06:28:05.147Z,38.72
2023-05-10T06:33:06.898Z,41.31
2023-05-10T06:38:08.711Z,43.75
2023-05-10T06:43:10.933Z,44.83
2023-05-10T06:48:12.680Z,45.63
2023-05-10T06:53:14.511Z,45.85
2023-05-10T06:58:16.333Z,45.73
2023-05-10T07:03:18.115Z,45.79
2023-05-10T07:08:19.942Z,45.74
2023-05-10T07:13:21.766Z,44.39
2023-05-10T07:18:23.823Z,43.36
2023-05-10T07:23:25.770Z,41.94
2023-05-10T07:28:27.573Z,41.30
2023-05-10T07:33:29.227Z,41.22
2023-05-10T07:38:30.867Z,40.65
2023-05-10T07:43:32.504Z,40.39
2023-05-10T07:48:34.255Z,40.45
2023-05-10T07:53:36.445Z,40.27
2023-05-10T07:58:38.170Z,40.08
2023-05-10T08:03:39.950Z,39.34
2023-05-10T08:08:42.191Z,38.86
2023-05-10T08:13:44.559Z,38.87
2023-05-10T08:18:48.081Z,38.29
2023-05-10T08:23:50.319Z,38.20
2023-05-10T08:28:52.016Z,38.10
2023-05-10T08:34:03.894Z,37.85
2023-05-10T08:39:07.733Z,37.35
2023-05-10T08:44:13.691Z,37.19
2023-05-10T08:49:21.126Z,37.30
2023-05-10T08:54:23.233Z,37.52
2023-05-10T08:59:25.087Z,37.70
2023-05-10T09:04:27.314Z,36.59
2023-05-10T09:09:29.179Z,36.46
2023-05-10T09:14:35.020Z,36.38
2023-05-10T09:19:36.728Z,36.82
2023-05-10T09:24:43.395Z,36.20
2023-05-10T09:29:45.116Z,36.09
2023-05-10T09:34:51.068Z,35.22
2023-05-10T09:39:55.645Z,34.23
2023-05-10T09:45:02.703Z,33.26
2023-05-10T09:50:05.686Z,34.03
2023-05-10T09:55:08.397Z,34.42
2023-05-10T10:00:13.545Z,34.74
2023-05-10T10:05:16.142Z,34.61
2023-05-10T10:10:18.157Z,35.14
2023-05-10T10:15:21.505Z,35.57
2023-05-10T10:20:24.253Z,36.00
2023-05-10T10:25:26.512Z,37.03
2023-05-10T10:30:36.175Z,36.12
2023-05-10T10:35:38.414Z,35.21
2023-05-10T10:40:40.540Z,35.53
2023-05-10T10:45:42.368Z,35.79
2023-05-10T10:50:47.812Z,35.28
2023-05-10T10:55:49.907Z,34.50
2023-05-10T11:01:09.749Z,34.64
2023-05-10T11:06:11.547Z,35.42
2023-05-10T11:11:16.153Z,35.61
2023-05-10T11:16:26.257Z,34.78
2023-05-10T11:21:28.162Z,33.72
2023-05-10T11:26:35.295Z,34.42
2023-05-10T11:31:44.819Z,34.14
2023-05-10T11:36:52.772Z,33.23
2023-05-10T11:41:55.679Z,32.67
2023-05-10T11:47:02.569Z,33.09
2023-05-10T11:52:06.192Z,32.79
2023-05-10T11:57:07.986Z,31.59
2023-05-10T12:02:09.716Z,31.44
2023-05-10T12:07:11.470Z,31.55
2023-05-10T12:12:19.234Z,31.93
2023-05-10T12:17:20.908Z,31.57
2023-05-10T12:22:22.758Z,30.31
2023-05-10T12:27:24.435Z,29.67
2023-05-10T12:32:44.915Z,30.23
2023-05-10T12:37:46.596Z,31.26
2023-05-10T12:42:49.797Z,31.43
2023-05-10T12:47:51.721Z,32.51
2023-05-10T12:52:53.499Z,32.17
2023-05-10T12:57:55.430Z,31.83
2023-05-10T13:02:57.304Z,31.90
2023-05-10T13:07:59.037Z,31.98
2023-05-10T13:13:00.906Z,32.10
2023-05-10T13:18:02.807Z,31.57
2023-05-10T13:23:04.768Z,30.02
2023-05-10T13:28:06.744Z,29.83
2023-05-10T13:33:08.511Z,29.99
2023-05-10T13:38:10.546Z,30.86
2023-05-10T13:43:12.367Z,30.89
2023-05-10T13:48:14.206Z,30.47
2023-05-10T13:53:16.524Z,30.83
2023-05-10T13:58:18.306Z,31.52
2023-05-10T14:03:20.248Z,32.29
2023-05-10T14:08:22.817Z,32.55
2023-05-10T14:13:24.833Z,33.09
2023-05-10T14:18:26.922Z,33.08
2023-05-10T14:23:29.860Z,33.44
2023-05-10T14:28:31.919Z,33.51
2023-05-10T14:33:33.745Z,34.04
2023-05-10T14:38:35.816Z,34.22
2023-05-10T14:43:37.800Z,34.98
2023-05-10T14:48:39.553Z,35.74
2023-05-10T14:53:41.424Z,34.70
2023-05-10T14:58:43.321Z,33.70
2023-05-10T15:03:45.129Z,34.07
2023-05-10T15:08:47.290Z,34.77
2023-05-10T15:13:49.022Z,35.27
2023-05-10T15:18:50.995Z,36.07
2023-05-10T15:23:53.667Z,36.07
2023-05-10T15:28:55.405Z,35.86
2023-05-10T15:34:00.081Z,35.91
2023-05-10T15:39:01.890Z,36.46
2023-05-10T15:44:04.216Z,36.61
2023-05-10T15:49:06.920Z,36.61
2023-05-10T15:54:09.711Z,36.59
2023-05-10T15:59:11.949Z,34.79
2023-05-10T16:04:14.028Z,33.30
2023-05-10T16:09:16.010Z,31.64
2023-05-10T16:14:17.842Z,30.34
2023-05-10T16:19:19.913Z,29.94
2023-05-10T16:24:21.857Z,30.37
2023-05-10T16:29:23.638Z,31.16
2023-05-10T16:34:25.514Z,31.49
2023-05-10T16:39:27.393Z,30.96
2023-05-10T16:44:29.125Z,30.14
2023-05-10T16:49:30.983Z,29.74
2023-05-10T16:54:32.781Z,29.71
2023-05-10T16:59:34.533Z,30.43
2023-05-10T17:04:36.356Z,31.60
2023-05-10T17:09:38.110Z,32.63
2023-05-10T17:14:40.135Z,33.79
2023-05-10T17:19:44.989Z,34.48
2023-05-10T17:24:46.759Z,35.14
2023-05-10T17:29:48.493Z,36.28
2023-05-10T17:34:50.227Z,37.03
2023-05-10T17:39:52.193Z,37.77
2023-05-10T17:44:54.017Z,38.36
2023-05-10T17:49:56.066Z,38.17
2023-05-10T17:54:58.337Z,37.97
2023-05-10T18:00:00.266Z,38.00
2023-05-10T18:05:03.170Z,38.35
2023-05-10T18:10:06.694Z,39.10
2023-05-10T18:15:09.236Z,40.11
2023-05-10T18:20:11.547Z,40.96
2023-05-10T18:25:13.377Z,41.68
2023-05-10T18:30:15.268Z,42.70
2023-05-10T18:35:17.476Z,43.53
2023-05-10T18:40:19.675Z,44.17
2023-05-10T18:45:21.690Z,45.10
2023-05-10T18:50:23.425Z,46.33
2023-05-10T18:55:28.396Z,46.68
2023-05-10T19:00:30.102Z,48.74
2023-05-10T19:05:31.954Z,49.87
2023-05-10T19:10:33.724Z,48.72
2023-05-10T19:15:38.642Z,48.82
2023-05-10T19:20:42.525Z,49.83
2023-05-10T19:25:46.293Z,50.66
2023-05-10T19:30:50.308Z,50.75
2023-05-10T19:35:53.620Z,50.75
2023-05-10T19:40:58.281Z,50.39
2023-05-10T19:46:02.277Z,50.41
2023-05-10T19:51:07.718Z,50.62
2023-05-10T19:56:11.328Z,50.70
2023-05-10T20:01:13.725Z,50.80
2023-05-10T20:06:15.529Z,50.69
2023-05-10T20:11:17.278Z,50.96
2023-05-10T20:16:18.947Z,51.14
2023-05-10T20:21:22.308Z,51.31
2023-05-10T20:26:24.087Z,51.70
2023-05-10T20:31:25.786Z,51.87
2023-05-10T20:36:27.628Z,52.25
2023-05-10T20:41:29.267Z,52.53
2023-05-10T20:46:31.608Z,53.02
2023-05-10T20:51:33.488Z,53.37
2023-05-10T20:56:35.226Z,53.47
2023-05-10T21:01:36.923Z,53.78
2023-05-10T21:06:39.060Z,54.20
2023-05-10T21:11:41.763Z,54.67
2023-05-10T21:16:44.660Z,55.01
2023-05-10T21:21:46.522Z,55.32
2023-05-10T21:26:48.275Z,56.13
2023-05-10T21:31:51.097Z,56.26
2023-05-10T21:36:54.533Z,56.46
2023-05-10T21:41:56.966Z,56.74
2023-05-10T21:47:01.195Z,56.68
2023-05-10T21:52:04.678Z,56.92
2023-05-10T21:57:06.334Z,57.12
2023-05-10T22:02:08.257Z,57.44
2023-05-10T22:07:10.151Z,57.94
2023-05-10T22:12:12.986Z,58.15
2023-05-10T22:17:14.922Z,58.57
2023-05-10T22:22:16.853Z,58.47
2023-05-10T22:27:18.575Z,58.70
2023-05-10T22:32:20.249Z,58.74
2023-05-10T22:37:21.975Z,59.65
2023-05-10T22:42:23.597Z,61.31
2023-05-10T22:47:25.657Z,62.67
2023-05-10T22:52:27.492Z,63.95
2023-05-10T22:57:29.214Z,63.29
2023-05-10T23:02:31.715Z,62.77
2023-05-10T23:07:34.478Z,62.53
2023-05-10T23:12:38.692Z,62.55
2023-05-10T23:17:42.605Z,62.61
2023-05-10T23:22:44.871Z,62.51
2023-05-10T23:27:46.676Z,62.68
2023-05-10T23:32:48.401Z,62.59
2023-05-10T23:37:50.588Z,62.49
2023-05-10T23:42:53.712Z,62.34
2023-05-10T23:47:56.709Z,62.30
2023-05-10T23:52:58.621Z,61.08
2023-05-10T23:58:00.544Z,61.43
